createdAt,value
2019-03-08T00:02:21.930Z,99510.16
2019-03-08T00:07:27.414Z,99517.86
2019-03-08T00:12:32.899Z,99505.84
2019-03-08T00:17:38.100Z,99518.81
2019-03-08T00:22:43.404Z,99517.60
2019-03-08T00:27:48.658Z,99514.54
2019-03-08T00:32:54.102Z,99512.84
2019-03-08T00:37:59.375Z,99530.56
2019-03-08T00:43:04.917Z,99535.16
2019-03-08T00:48:10.158Z,99543.48
2019-03-08T00:53:15.829Z,99556.15
2019-03-08T00:58:21.277Z,99557.58
2019-03-08T01:03:26.512Z,99551.27
2019-03-08T01:08:32.014Z,99567.47
2019-03-08T01:13:37.312Z,99569.59
2019-03-08T01:18:42.605Z,99589.02
2019-03-08T01:23:47.840Z,99589.64
2019-03-08T01:28:53.115Z,99588.66
2019-03-08T01:33:58.321Z,99584.81
2019-03-08T01:39:04.695Z,99585.64
2019-03-08T01:44:09.990Z,99592.33
2019-03-08T01:49:15.226Z,99601.25
2019-03-08T01:54:20.689Z,99600.47
2019-03-08T01:59:25.961Z,99600.34
2019-03-08T02:04:32.161Z,99593.21
2019-03-08T02:09:37.390Z,99586.34
2019-03-08T02:14:42.783Z,99594.22
2019-03-08T02:19:48.175Z,99599.19
2019-03-08T02:24:53.387Z,99604.58
2019-03-08T02:29:58.665Z,99598.99
2019-03-08T02:35:04.005Z,99567.98
2019-03-08T02:40:27.180Z,99607.28
2019-03-08T02:45:32.686Z,99612.76
2019-03-08T02:50:38.120Z,99608.13
2019-03-08T02:55:43.370Z,99620.07
2019-03-08T03:00:48.926Z,99607.28
2019-03-08T03:05:54.202Z,99600.58
2019-03-08T03:10:59.440Z,99614.32
2019-03-08T03:16:04.741Z,99603.79
2019-03-08T03:21:09.945Z,99587.97
2019-03-08T03:26:15.264Z,99606.88
2019-03-08T03:31:20.497Z,99619.11
2019-03-08T03:36:25.775Z,99622.91
2019-03-08T03:41:31.365Z,99630.44
2019-03-08T03:46:36.635Z,99618.70
2019-03-08T03:51:41.870Z,99611.30
2019-03-08T03:56:47.130Z,99614.05
2019-03-08T04:01:52.360Z,99626.89
2019-03-08T04:06:57.596Z,99626.52
2019-03-08T04:12:02.815Z,99630.20
2019-03-08T04:17:08.071Z,99639.70
2019-03-08T04:22:13.355Z,99643.22
2019-03-08T04:27:18.581Z,99643.95
2019-03-08T04:32:23.801Z,99648.67
2019-03-08T04:37:29.139Z,99635.83
2019-03-08T04:42:34.419Z,99638.77
2019-03-08T04:47:39.746Z,99639.38
2019-03-08T04:52:45.053Z,99662.61
2019-03-08T04:57:50.448Z,99659.16
2019-03-08T05:02:55.759Z,99672.77
2019-03-08T05:08:00.984Z,99682.45
2019-03-08T05:13:06.242Z,99680.72
2019-03-08T05:18:11.517Z,99686.57
2019-03-08T05:23:16.999Z,99703.33
2019-03-08T05:28:22.282Z,99723.04
2019-03-08T05:33:27.482Z,99734.22
2019-03-08T05:38:32.830Z,99724.67
2019-03-08T05:43:38.090Z,99718.75
2019-03-08T05:48:43.315Z,99718.75
2019-03-08T05:53:48.605Z,99720.34
2019-03-08T05:58:53.803Z,99716.75
2019-03-08T06:03:59.075Z,99713.01
2019-03-08T06:09:05.873Z,99724.25
2019-03-08T06:14:11.146Z,99720.80
2019-03-08T06:19:16.410Z,99731.58
2019-03-08T06:24:21.737Z,99743.09
2019-03-08T06:29:27.142Z,99740.75
2019-03-08T06:34:32.936Z,99740.78
2019-03-08T06:39:38.348Z,99719.31
2019-03-08T06:44:43.618Z,99721.87
2019-03-08T06:49:48.856Z,99714.02
2019-03-08T06:54:54.243Z,99714.52
2019-03-08T07:00:07.276Z,99709.33
2019-03-08T07:05:12.535Z,99709.33
2019-03-08T07:10:17.844Z,99705.63
2019-03-08T07:15:23.382Z,99698.65
2019-03-08T07:20:36.987Z,99696.92
2019-03-08T07:25:54.186Z,99703.89
2019-03-08T07:31:11.436Z,99705.67
2019-03-08T07:36:24.952Z,99703.64
2019-03-08T07:41:38.078Z,99720.27
2019-03-08T07:46:52.027Z,99723.73
2019-03-08T07:52:07.112Z,99713.16
2019-03-08T07:57:21.059Z,99704.78
2019-03-08T08:02:34.987Z,99710.78
2019-03-08T08:07:46.727Z,99702.77
2019-03-08T08:13:02.024Z,99711.91
2019-03-08T08:18:14.819Z,99698.13
2019-03-08T08:23:34.352Z,99699.34
2019-03-08T08:28:50.649Z,99706.30
2019-03-08T08:34:05.246Z,99717.45
2019-03-08T08:39:32.240Z,99704.31
2019-03-08T08:44:49.491Z,99709.76
2019-03-08T08:50:03.155Z,99696.91
2019-03-08T08:55:19.597Z,99709.71
2019-03-08T09:00:31.900Z,99700.36
2019-03-08T09:05:42.426Z,99696.42
2019-03-08T09:10:54.725Z,99683.13
2019-03-08T09:21:26.702Z,99702.88
2019-03-08T09:26:39.985Z,99699.63
2019-03-08T09:31:53.321Z,99695.30
2019-03-08T09:37:09.310Z,99701.42
2019-03-08T09:42:22.995Z,99710.06
2019-03-08T09:47:36.939Z,99701.47
2019-03-08T09:52:51.122Z,99697.52
2019-03-08T09:58:15.234Z,99692.15
2019-03-08T10:03:39.382Z,99696.05
2019-03-08T10:08:53.918Z,99726.44
2019-03-08T10:14:09.144Z,99711.52
2019-03-08T10:19:30.000Z,99713.04
2019-03-08T10:24:51.287Z,99703.10
2019-03-08T10:30:04.997Z,99698.34
2019-03-08T10:35:23.965Z,99693.48
2019-03-08T10:40:34.915Z,99684.69
2019-03-08T10:45:50.105Z,99653.13
2019-03-08T10:51:01.670Z,99645.92
2019-03-08T10:56:23.349Z,99649.48
2019-03-08T11:01:35.561Z,99616.39
2019-03-08T11:06:50.348Z,99637.51
2019-03-08T11:12:03.995Z,99666.13
2019-03-08T11:17:11.230Z,99670.14
2019-03-08T11:22:25.007Z,99658.98
2019-03-08T11:27:44.011Z,99656.22
2019-03-08T11:32:57.975Z,99636.69
2019-03-08T11:38:11.969Z,99627.23
2019-03-08T11:43:28.995Z,99612.39
2019-03-08T11:48:46.960Z,99609.59
2019-03-08T11:54:05.130Z,99584.41
2019-03-08T11:59:23.410Z,99575.77
2019-03-08T12:04:36.916Z,99554.08
2019-03-08T12:09:47.161Z,99542.01
2019-03-08T12:15:00.983Z,99554.95
2019-03-08T12:20:14.189Z,99549.27
2019-03-08T12:25:34.014Z,99551.95
2019-03-08T12:30:52.643Z,99553.01
2019-03-08T12:36:05.981Z,99551.33
2019-03-08T12:41:25.115Z,99549.84
2019-03-08T12:46:39.010Z,99551.09
2019-03-08T12:51:53.160Z,99545.80
2019-03-08T12:57:06.911Z,99536.87
2019-03-08T13:02:19.364Z,99507.35
2019-03-08T13:07:34.231Z,99496.52
2019-03-08T13:12:39.566Z,99476.70
2019-03-08T13:17:45.021Z,99471.98
2019-03-08T13:22:50.403Z,99459.45
2019-03-08T13:27:55.895Z,99425.02
2019-03-08T13:33:01.300Z,99396.92
2019-03-08T13:38:09.847Z,99400.61
2019-03-08T13:43:15.231Z,99401.90
2019-03-08T13:48:20.588Z,99405.35
2019-03-08T13:53:25.864Z,99387.50
2019-03-08T13:58:31.174Z,99380.88
2019-03-08T14:03:36.690Z,99350.86
2019-03-08T14:08:41.996Z,99372.35
2019-03-08T14:13:47.695Z,99375.44
2019-03-08T14:18:52.956Z,99357.66
2019-03-08T14:23:58.631Z,99348.91
2019-03-08T14:29:03.950Z,99320.23
2019-03-08T14:34:10.830Z,99323.91
2019-03-08T14:39:17.697Z,99328.12
2019-03-08T14:44:34.986Z,99307.03
2019-03-08T14:49:40.225Z,99307.42
2019-03-08T14:54:46.416Z,99286.45
2019-03-08T14:59:53.040Z,99275.73
2019-03-08T15:04:59.205Z,99291.33
2019-03-08T15:10:07.726Z,99299.16
2019-03-08T15:15:13.520Z,99302.75
2019-03-08T15:20:19.201Z,99267.98
2019-03-08T15:25:31.249Z,99277.58
2019-03-08T15:30:35.596Z,99266.48
2019-03-08T15:35:40.953Z,99255.83
2019-03-08T15:40:46.367Z,99243.17
2019-03-08T15:45:53.846Z,99234.72
2019-03-08T15:50:59.583Z,99233.93
2019-03-08T15:56:05.306Z,99219.55
2019-03-08T16:01:10.725Z,99219.00
2019-03-08T16:06:16.375Z,99218.53
2019-03-08T16:11:21.625Z,99228.58
2019-03-08T16:16:27.454Z,99212.09
2019-03-08T16:21:32.728Z,99226.71
2019-03-08T16:26:38.206Z,99250.84
2019-03-08T16:31:49.700Z,99231.53
2019-03-08T16:37:00.124Z,99233.89
2019-03-08T16:42:10.260Z,99244.63
2019-03-08T16:47:24.006Z,99251.94
2019-03-08T16:52:38.004Z,99249.25
2019-03-08T16:57:54.922Z,99233.81
2019-03-08T17:03:09.226Z,99256.45
2019-03-08T17:08:21.771Z,99250.47
2019-03-08T17:13:37.640Z,99247.36
2019-03-08T17:18:54.746Z,99273.96
2019-03-08T17:24:08.961Z,99288.53
2019-03-08T17:29:23.462Z,99304.44
2019-03-08T17:34:41.026Z,99300.86
2019-03-08T17:39:53.506Z,99304.59
2019-03-08T17:45:07.131Z,99326.09
2019-03-08T17:50:21.047Z,99338.28
2019-03-08T17:55:36.591Z,99345.33
2019-03-08T18:01:00.764Z,99348.48
2019-03-08T18:06:15.029Z,99351.89
2019-03-08T18:11:39.658Z,99357.56
2019-03-08T18:16:54.491Z,99394.66
2019-03-08T18:22:06.393Z,99394.66
2019-03-08T18:27:20.791Z,99409.53
2019-03-08T18:32:32.856Z,99418.80
2019-03-08T18:37:45.818Z,99430.51
2019-03-08T18:42:57.872Z,99442.44
2019-03-08T18:48:12.011Z,99452.82
2019-03-08T18:53:26.014Z,99459.26
2019-03-08T18:58:40.271Z,99468.91
2019-03-08T19:04:04.529Z,99465.36
2019-03-08T19:09:18.192Z,99487.27
2019-03-08T19:14:36.429Z,99501.48
2019-03-08T19:19:50.371Z,99514.13
2019-03-08T19:25:05.280Z,99538.79
2019-03-08T19:30:22.110Z,99557.55
2019-03-08T19:35:42.672Z,99562.17
2019-03-08T19:40:55.931Z,99574.19
2019-03-08T19:46:12.831Z,99592.27
2019-03-08T19:51:35.055Z,99598.62
2019-03-08T19:56:46.710Z,99613.48
2019-03-08T20:02:00.088Z,99617.22
2019-03-08T20:07:23.288Z,99629.33
2019-03-08T20:12:36.951Z,99640.98
2019-03-08T20:18:01.207Z,99652.20
2019-03-08T20:23:15.038Z,99653.17
2019-03-08T20:28:28.992Z,99659.16
2019-03-08T20:33:44.532Z,99666.25
2019-03-08T20:38:58.018Z,99660.17
2019-03-08T20:44:11.712Z,99668.20
2019-03-08T20:49:17.191Z,99673.11
2019-03-08T20:54:22.572Z,99674.09
2019-03-08T20:59:28.286Z,99672.17
2019-03-08T21:04:34.312Z,99679.07
2019-03-08T21:09:42.691Z,99683.50
2019-03-08T21:14:48.013Z,99680.08
2019-03-08T21:19:53.751Z,99702.52
2019-03-08T21:24:59.950Z,99719.80
2019-03-08T21:30:07.311Z,99717.42
2019-03-08T21:35:15.630Z,99738.36
2019-03-08T21:40:21.352Z,99741.55
2019-03-08T21:45:26.752Z,99747.83
2019-03-08T21:50:32.487Z,99747.91
2019-03-08T21:55:37.849Z,99776.15
2019-03-08T22:00:43.630Z,99794.72
2019-03-08T22:05:48.932Z,99801.77
2019-03-08T22:11:04.091Z,99803.70
2019-03-08T22:16:09.387Z,99803.70
2019-03-08T22:21:14.811Z,99805.84
2019-03-08T22:26:22.621Z,99828.80
2019-03-08T22:31:27.958Z,99816.84
2019-03-08T22:36:33.424Z,99812.59
2019-03-08T22:41:38.842Z,99799.87
2019-03-08T22:46:45.488Z,99794.98
2019-03-08T22:51:51.035Z,99789.75
2019-03-08T22:56:56.283Z,99797.27
2019-03-08T23:02:08.146Z,99813.66
2019-03-08T23:07:13.482Z,99836.69
2019-03-08T23:12:18.934Z,99845.10
2019-03-08T23:17:24.400Z,99847.16
2019-03-08T23:22:29.737Z,99848.09
2019-03-08T23:27:39.990Z,99856.84
2019-03-08T23:32:48.225Z,99853.22
2019-03-08T23:37:53.466Z,99839.56
2019-03-08T23:42:58.809Z,99861.16
2019-03-08T23:48:04.054Z,99867.88
2019-03-08T23:53:09.334Z,99866.95
2019-03-08T23:58:14.610Z,99894.89
